createdAt,value
2022-08-24T00:00:50.482Z,2.60
2022-08-24T00:03:59.532Z,2.30
2022-08-24T00:07:21.502Z,2.70
2022-08-24T00:10:37.336Z,2.40
2022-08-24T00:13:46.657Z,2.10
2022-08-24T00:16:55.204Z,2.50
2022-08-24T00:20:11.177Z,2.53
2022-08-24T00:23:19.533Z,2.20
2022-08-24T00:26:29.396Z,2.50
2022-08-24T00:29:38.177Z,2.90
2022-08-24T00:32:48.901Z,2.43
2022-08-24T00:35:57.300Z,2.57
2022-08-24T00:39:07.981Z,2.33
2022-08-24T00:42:17.651Z,2.57
2022-08-24T00:45:26.251Z,2.33
2022-08-24T00:48:41.749Z,2.70
2022-08-24T00:51:59.087Z,2.40
2022-08-24T00:55:17.928Z,2.73
2022-08-24T00:58:35.976Z,2.80
2022-08-24T01:01:45.125Z,2.47
2022-08-24T01:04:58.028Z,2.90
2022-08-24T01:08:11.298Z,2.53
2022-08-24T01:11:27.491Z,2.40
2022-08-24T01:14:40.759Z,2.37
2022-08-24T01:18:06.933Z,2.20
2022-08-24T01:21:22.483Z,2.30
2022-08-24T01:24:32.085Z,2.30
2022-08-24T01:27:43.709Z,2.40
2022-08-24T01:30:52.223Z,2.47
2022-08-24T01:34:00.745Z,2.53
2022-08-24T01:37:12.400Z,2.70
2022-08-24T01:40:34.523Z,2.23
2022-08-24T01:43:42.730Z,2.23
2022-08-24T01:46:53.821Z,2.90
2022-08-24T01:50:03.464Z,2.43
2022-08-24T01:53:12.080Z,2.73
2022-08-24T01:56:21.637Z,2.60
2022-08-24T01:59:31.243Z,2.70
2022-08-24T02:02:39.709Z,2.63
2022-08-24T02:05:49.324Z,2.43
2022-08-24T02:08:57.541Z,2.30
2022-08-24T02:12:09.073Z,2.73
2022-08-24T02:15:24.225Z,2.33
2022-08-24T02:18:35.749Z,2.40
2022-08-24T02:21:44.021Z,2.57
2022-08-24T02:24:52.285Z,2.23
2022-08-24T02:28:02.964Z,2.17
2022-08-24T02:31:14.797Z,2.90
2022-08-24T02:34:25.732Z,2.93
2022-08-24T02:37:33.857Z,2.73
2022-08-24T02:40:44.296Z,2.43
2022-08-24T02:43:55.562Z,2.40
2022-08-24T02:47:03.768Z,2.30
2022-08-24T02:50:17.948Z,2.63
2022-08-24T02:53:26.530Z,2.63
2022-08-24T02:56:35.908Z,2.83
2022-08-24T02:59:45.516Z,3.10
2022-08-24T03:02:54.745Z,3.30
2022-08-24T03:06:03.990Z,3.30
2022-08-24T03:09:12.463Z,2.87
2022-08-24T03:12:21.207Z,2.90
2022-08-24T03:15:32.116Z,2.60
2022-08-24T03:18:40.460Z,2.50
2022-08-24T03:21:49.379Z,3.10
2022-08-24T03:24:57.916Z,3.00
2022-08-24T03:28:08.633Z,2.67
2022-08-24T03:31:21.059Z,2.60
2022-08-24T03:37:54.388Z,2.40
2022-08-24T03:41:02.766Z,2.60
2022-08-24T03:44:12.085Z,2.27
2022-08-24T03:47:23.032Z,3.40
2022-08-24T03:50:31.683Z,2.70
2022-08-24T03:53:42.983Z,2.60
2022-08-24T03:56:52.615Z,3.07
2022-08-24T04:00:00.991Z,3.00
2022-08-24T04:03:13.196Z,2.63
2022-08-24T04:06:23.601Z,2.60
2022-08-24T04:09:31.910Z,2.80
2022-08-24T04:12:40.540Z,3.10
2022-08-24T04:15:53.085Z,3.50
2022-08-24T04:19:02.778Z,3.13
2022-08-24T04:22:11.196Z,3.47
2022-08-24T04:25:24.225Z,3.33
2022-08-24T04:28:33.722Z,3.17
2022-08-24T04:31:44.444Z,3.23
2022-08-24T04:34:55.171Z,3.33
2022-08-24T04:38:03.339Z,2.67
2022-08-24T04:41:14.284Z,2.90
2022-08-24T04:44:26.242Z,2.77
2022-08-24T04:47:37.077Z,2.33
2022-08-24T04:50:46.992Z,2.93
2022-08-24T04:53:55.439Z,3.20
2022-08-24T04:57:07.531Z,3.20
2022-08-24T05:00:16.642Z,3.17
2022-08-24T05:03:26.009Z,2.63
2022-08-24T05:06:35.887Z,2.97
2022-08-24T05:09:44.510Z,2.60
2022-08-24T05:12:53.009Z,3.00
2022-08-24T05:16:01.369Z,3.07
2022-08-24T05:19:09.996Z,3.13
2022-08-24T05:22:20.878Z,3.33
2022-08-24T05:25:34.372Z,3.77
2022-08-24T05:28:43.543Z,3.60
2022-08-24T05:31:51.750Z,2.70
2022-08-24T05:35:04.765Z,3.03
2022-08-24T05:38:14.888Z,2.93
2022-08-24T05:41:24.371Z,3.00
2022-08-24T05:44:40.511Z,3.13
2022-08-24T05:47:49.165Z,2.93
2022-08-24T05:51:23.127Z,2.90
2022-08-24T05:54:41.632Z,2.53
2022-08-24T05:57:53.020Z,2.60
2022-08-24T06:01:09.187Z,2.43
2022-08-24T06:04:17.651Z,2.60
2022-08-24T06:07:26.962Z,2.50
2022-08-24T06:10:44.610Z,3.10
2022-08-24T06:13:56.259Z,2.63
2022-08-24T06:17:10.634Z,2.20
2022-08-24T06:20:19.124Z,1.90
2022-08-24T06:23:27.419Z,2.07
2022-08-24T06:27:00.337Z,1.70
2022-08-24T06:30:13.333Z,1.60
2022-08-24T06:33:48.050Z,1.50
2022-08-24T06:36:56.560Z,1.60
2022-08-24T06:40:10.290Z,1.40
2022-08-24T06:43:20.020Z,1.40
2022-08-24T06:46:32.937Z,1.40
2022-08-24T06:49:44.432Z,1.37
2022-08-24T06:52:52.727Z,1.20
2022-08-24T06:56:01.925Z,1.40
2022-08-24T06:59:15.638Z,1.60
2022-08-24T07:02:23.829Z,1.50
2022-08-24T07:05:34.995Z,1.60
2022-08-24T07:09:05.743Z,1.53
2022-08-24T07:12:14.446Z,1.47
2022-08-24T07:15:26.414Z,1.33
2022-08-24T07:18:50.229Z,1.70
2022-08-24T07:22:01.279Z,1.20
2022-08-24T07:25:11.146Z,1.10
2022-08-24T07:28:27.769Z,1.17
2022-08-24T07:31:43.801Z,1.30
2022-08-24T07:35:03.294Z,1.30
2022-08-24T07:38:14.083Z,1.50
2022-08-24T07:41:56.717Z,1.30
2022-08-24T07:44:54.505Z,2.10
2022-08-24T07:48:05.466Z,1.77
2022-08-24T07:51:24.770Z,1.50
2022-08-24T07:54:32.920Z,1.23
2022-08-24T07:57:45.147Z,1.10
2022-08-24T08:00:53.624Z,1.57
2022-08-24T08:04:07.208Z,1.30
2022-08-24T08:07:17.452Z,1.30
2022-08-24T08:10:31.083Z,1.27
2022-08-24T08:16:54.635Z,1.30
2022-08-24T08:20:07.000Z,1.27
2022-08-24T08:23:33.492Z,1.30
2022-08-24T08:26:54.682Z,1.43
2022-08-24T08:30:12.451Z,1.83
2022-08-24T08:33:20.977Z,1.40
2022-08-24T08:36:31.569Z,1.10
2022-08-24T08:39:41.766Z,1.27
2022-08-24T08:43:05.920Z,1.43
2022-08-24T08:46:43.985Z,1.30
2022-08-24T08:50:17.005Z,1.40
2022-08-24T08:54:13.007Z,1.30
2022-08-24T08:57:44.008Z,1.27
2022-08-24T09:01:06.450Z,1.20
2022-08-24T09:05:02.734Z,1.30
2022-08-24T09:08:28.546Z,1.67
2022-08-24T09:11:56.098Z,1.53
2022-08-24T09:15:32.046Z,1.30
2022-08-24T09:19:06.282Z,1.30
2022-08-24T09:22:17.897Z,1.20
2022-08-24T09:25:36.553Z,1.33
2022-08-24T09:29:05.397Z,1.20
2022-08-24T09:32:49.745Z,1.23
2022-08-24T09:36:12.477Z,3.77
2022-08-24T09:39:46.287Z,1.43
2022-08-24T09:43:32.831Z,3.20
2022-08-24T09:47:20.724Z,7.23
2022-08-24T09:51:08.039Z,1.40
2022-08-24T09:54:58.640Z,1.30
2022-08-24T09:58:24.455Z,0.90
2022-08-24T10:01:43.048Z,1.10
2022-08-24T10:05:10.251Z,1.20
2022-08-24T10:08:39.699Z,1.00
2022-08-24T10:12:04.975Z,1.00
2022-08-24T10:15:24.550Z,1.00
2022-08-24T10:18:52.293Z,0.90
2022-08-24T10:22:18.311Z,1.10
2022-08-24T10:25:38.455Z,1.03
2022-08-24T10:29:32.726Z,1.37
2022-08-24T10:32:57.178Z,1.23
2022-08-24T10:36:50.217Z,1.10
2022-08-24T10:40:40.703Z,1.23
2022-08-24T10:44:17.839Z,1.40
2022-08-24T10:47:30.991Z,1.30
2022-08-24T10:50:58.798Z,1.33
2022-08-24T10:54:12.465Z,1.07
2022-08-24T10:57:37.000Z,1.20
2022-08-24T11:00:46.012Z,1.40
2022-08-24T11:04:09.618Z,1.30
2022-08-24T11:07:22.518Z,1.20
2022-08-24T11:10:35.772Z,1.30
2022-08-24T11:13:58.958Z,1.30
2022-08-24T11:17:18.766Z,1.70
2022-08-24T11:20:34.956Z,1.30
2022-08-24T11:23:44.337Z,1.20
2022-08-24T11:26:58.701Z,1.10
2022-08-24T11:30:24.775Z,1.03
2022-08-24T11:33:36.807Z,1.00
2022-08-24T11:36:45.606Z,1.20
2022-08-24T11:39:53.845Z,1.07
2022-08-24T11:43:39.475Z,1.10
2022-08-24T11:47:01.534Z,1.43
2022-08-24T11:50:31.817Z,1.00
2022-08-24T11:53:53.073Z,1.30
2022-08-24T11:57:11.599Z,1.00
2022-08-24T12:00:24.896Z,0.77
2022-08-24T12:03:54.395Z,1.00
2022-08-24T12:07:22.437Z,0.90
2022-08-24T12:10:43.428Z,0.60
2022-08-24T12:14:04.805Z,0.80
2022-08-24T12:17:22.848Z,0.90
2022-08-24T12:20:39.170Z,1.10
2022-08-24T12:23:52.238Z,1.20
2022-08-24T12:27:08.099Z,1.00
2022-08-24T12:30:18.775Z,1.00
2022-08-24T12:33:37.600Z,1.00
2022-08-24T12:37:01.418Z,1.30
2022-08-24T12:40:27.653Z,1.80
2022-08-24T12:43:43.303Z,1.47
2022-08-24T12:46:55.015Z,1.60
2022-08-24T12:50:08.972Z,1.50
2022-08-24T12:53:57.843Z,1.57
2022-08-24T12:57:35.021Z,1.30
2022-08-24T13:00:48.071Z,1.20
2022-08-24T13:04:32.477Z,1.30
2022-08-24T13:07:45.354Z,1.17
2022-08-24T13:11:07.612Z,1.27
2022-08-24T13:14:23.380Z,1.07
2022-08-24T13:17:42.565Z,1.40
2022-08-24T13:20:57.332Z,1.50
2022-08-24T13:25:02.063Z,1.17
2022-08-24T13:28:37.438Z,1.50
2022-08-24T13:31:57.485Z,1.10
2022-08-24T13:35:55.176Z,1.40
2022-08-24T13:39:17.274Z,1.10
2022-08-24T13:43:07.976Z,1.50
2022-08-24T13:46:30.232Z,1.57
2022-08-24T13:50:01.903Z,1.50
2022-08-24T13:53:46.809Z,1.73
2022-08-24T13:57:28.700Z,1.50
2022-08-24T14:00:46.738Z,1.20
2022-08-24T14:04:43.511Z,1.30
2022-08-24T14:08:09.875Z,1.30
2022-08-24T14:11:38.364Z,1.30
2022-08-24T14:15:15.976Z,1.33
2022-08-24T14:18:35.503Z,1.37
2022-08-24T14:21:59.252Z,1.63
2022-08-24T14:25:24.174Z,1.20
2022-08-24T14:28:43.527Z,1.60
2022-08-24T14:32:39.225Z,1.30
2022-08-24T14:36:09.689Z,1.27
2022-08-24T14:39:37.384Z,1.00
2022-08-24T14:42:57.964Z,1.50
2022-08-24T14:46:19.968Z,1.40
2022-08-24T14:49:39.132Z,1.40
2022-08-24T14:53:01.266Z,1.43
2022-08-24T14:56:26.591Z,1.20
2022-08-24T14:59:58.489Z,0.90
2022-08-24T15:03:29.504Z,1.10
2022-08-24T15:06:48.346Z,1.20
2022-08-24T15:10:00.280Z,1.60
2022-08-24T15:13:27.140Z,1.10
2022-08-24T15:16:53.211Z,1.10
2022-08-24T15:20:10.472Z,1.40
2022-08-24T15:23:29.261Z,1.40
2022-08-24T15:26:56.120Z,1.27
2022-08-24T15:30:18.450Z,0.93
2022-08-24T15:33:28.867Z,1.70
2022-08-24T15:36:37.069Z,1.30
2022-08-24T15:43:20.350Z,1.10
2022-08-24T15:46:37.083Z,1.57
2022-08-24T15:49:52.316Z,1.13
2022-08-24T15:53:06.664Z,1.13
2022-08-24T15:56:35.631Z,1.30
2022-08-24T15:59:53.047Z,1.20
2022-08-24T16:03:22.154Z,1.20
2022-08-24T16:06:41.410Z,1.50
2022-08-24T16:10:01.972Z,0.90
2022-08-24T16:13:30.218Z,1.03
2022-08-24T16:16:42.585Z,0.93
2022-08-24T16:19:58.313Z,0.97
2022-08-24T16:23:11.545Z,0.80
2022-08-24T16:26:25.300Z,1.00
2022-08-24T16:29:55.833Z,0.80
2022-08-24T16:33:06.255Z,1.00
2022-08-24T16:36:20.391Z,1.07
2022-08-24T16:39:29.005Z,1.00
2022-08-24T16:42:38.929Z,1.17
2022-08-24T16:45:47.930Z,0.83
2022-08-24T16:48:56.423Z,1.03
2022-08-24T16:52:07.253Z,1.00
2022-08-24T16:55:15.791Z,1.00
2022-08-24T16:58:30.750Z,1.27
2022-08-24T17:01:38.939Z,1.17
2022-08-24T17:04:47.533Z,1.00
2022-08-24T17:08:00.291Z,1.00
2022-08-24T17:11:09.411Z,1.20
2022-08-24T17:14:19.650Z,0.90
2022-08-24T17:17:28.824Z,1.00
2022-08-24T17:20:37.595Z,0.80
2022-08-24T17:23:48.430Z,1.00
2022-08-24T17:26:57.693Z,1.10
2022-08-24T17:30:07.983Z,0.90
2022-08-24T17:33:18.616Z,0.70
2022-08-24T17:36:30.421Z,0.93
2022-08-24T17:39:42.743Z,0.90
2022-08-24T17:42:52.160Z,1.10
2022-08-24T17:46:01.408Z,1.10
2022-08-24T17:49:13.259Z,1.00
2022-08-24T17:52:22.746Z,0.90
2022-08-24T17:55:32.592Z,1.00
2022-08-24T17:58:54.784Z,1.30
2022-08-24T18:02:07.100Z,1.00
2022-08-24T18:05:15.493Z,1.07
2022-08-24T18:08:23.923Z,1.00
2022-08-24T18:11:34.141Z,1.17
2022-08-24T18:14:43.636Z,1.23
2022-08-24T18:17:53.722Z,1.20
2022-08-24T18:21:02.161Z,1.20
2022-08-24T18:24:10.439Z,1.00
2022-08-24T18:27:28.942Z,1.00
2022-08-24T18:30:40.634Z,1.13
2022-08-24T18:33:49.940Z,1.20
2022-08-24T18:36:58.238Z,0.87
2022-08-24T18:40:08.929Z,1.37
2022-08-24T18:43:21.436Z,1.07
2022-08-24T18:46:32.035Z,1.20
2022-08-24T18:49:40.669Z,1.10
2022-08-24T18:52:49.664Z,1.30
2022-08-24T18:56:00.605Z,1.40
2022-08-24T18:59:16.947Z,1.43
2022-08-24T19:02:33.107Z,1.47
2022-08-24T19:05:41.981Z,2.10
2022-08-24T19:08:54.259Z,1.97
2022-08-24T19:12:04.006Z,1.90
2022-08-24T19:15:32.063Z,1.80
2022-08-24T19:18:42.215Z,1.83
2022-08-24T19:21:51.171Z,1.97
2022-08-24T19:25:04.189Z,1.80
2022-08-24T19:28:13.040Z,1.67
2022-08-24T19:31:26.001Z,1.30
2022-08-24T19:34:35.816Z,1.40
2022-08-24T19:37:45.084Z,1.17
2022-08-24T19:40:54.428Z,1.20
2022-08-24T19:44:27.934Z,1.10
2022-08-24T19:47:38.284Z,1.10
2022-08-24T19:50:47.061Z,1.40
2022-08-24T19:53:55.391Z,1.20
2022-08-24T19:57:03.845Z,1.17
2022-08-24T20:00:28.659Z,1.30
2022-08-24T20:03:38.565Z,1.60
2022-08-24T20:06:47.270Z,1.17
2022-08-24T20:09:55.749Z,1.50
2022-08-24T20:13:04.298Z,1.50
2022-08-24T20:16:17.765Z,1.53
2022-08-24T20:19:28.552Z,1.40
2022-08-24T20:22:36.816Z,1.30
2022-08-24T20:25:46.266Z,1.50
2022-08-24T20:28:59.090Z,1.50
2022-08-24T20:32:07.646Z,1.70
2022-08-24T20:35:19.222Z,1.43
2022-08-24T20:38:31.958Z,1.37
2022-08-24T20:41:40.832Z,1.43
2022-08-24T20:44:49.557Z,1.87
2022-08-24T20:47:58.083Z,1.63
2022-08-24T20:51:08.950Z,1.63
2022-08-24T20:54:17.467Z,1.70
2022-08-24T20:57:26.471Z,1.50
2022-08-24T21:00:34.963Z,1.60
2022-08-24T21:03:44.556Z,1.53
2022-08-24T21:06:54.775Z,1.60
2022-08-24T21:10:03.414Z,1.50
2022-08-24T21:13:12.025Z,1.40
2022-08-24T21:16:20.536Z,1.73
2022-08-24T21:19:30.786Z,2.10
2022-08-24T21:22:47.358Z,2.30
2022-08-24T21:25:56.150Z,2.63
2022-08-24T21:29:08.283Z,2.43
2022-08-24T21:32:34.150Z,2.00
2022-08-24T21:35:43.714Z,2.13
2022-08-24T21:38:55.937Z,2.03
2022-08-24T21:42:04.687Z,1.90
2022-08-24T21:45:13.247Z,2.57
2022-08-24T21:48:21.936Z,2.20
2022-08-24T21:51:31.190Z,2.30
2022-08-24T21:54:41.031Z,2.20
2022-08-24T21:57:49.451Z,2.63
2022-08-24T22:00:58.864Z,2.67
2022-08-24T22:04:09.069Z,2.83
2022-08-24T22:07:17.400Z,2.60
2022-08-24T22:10:27.346Z,2.50
2022-08-24T22:13:38.309Z,2.30
2022-08-24T22:16:47.117Z,2.57
2022-08-24T22:19:55.472Z,2.70
2022-08-24T22:23:03.928Z,3.13
2022-08-24T22:26:14.565Z,3.27
2022-08-24T22:29:23.181Z,3.10
2022-08-24T22:32:31.511Z,3.07
2022-08-24T22:35:44.937Z,2.77
2022-08-24T22:38:56.190Z,3.07
2022-08-24T22:42:06.965Z,3.43
2022-08-24T22:45:15.672Z,3.30
2022-08-24T22:48:23.937Z,3.57
2022-08-24T22:51:36.277Z,3.40
2022-08-24T22:54:46.802Z,2.80
2022-08-24T22:57:56.375Z,2.97
2022-08-24T23:01:04.904Z,3.33
2022-08-24T23:04:18.213Z,3.80
2022-08-24T23:07:27.016Z,2.93
2022-08-24T23:10:35.405Z,3.17
2022-08-24T23:13:45.964Z,3.57
2022-08-24T23:16:54.840Z,3.20
2022-08-24T23:20:06.336Z,3.50
2022-08-24T23:23:14.978Z,3.73
2022-08-24T23:26:23.438Z,4.00
2022-08-24T23:29:34.245Z,3.77
2022-08-24T23:32:43.707Z,3.40
2022-08-24T23:35:52.160Z,2.80
2022-08-24T23:39:01.252Z,3.30
2022-08-24T23:42:09.807Z,3.30
2022-08-24T23:45:19.985Z,3.40
2022-08-24T23:48:38.202Z,3.37
2022-08-24T23:51:46.727Z,2.73
2022-08-24T23:54:55.050Z,3.00
2022-08-24T23:58:04.226Z,3.00
